createdAt,value
2019-01-09T00:06:36.942Z,47.30
2019-01-09T00:19:59.709Z,47.50
2019-01-09T00:33:22.554Z,47.70
2019-01-09T01:00:20.349Z,47.90
2019-01-09T01:13:27.653Z,48.10
2019-01-09T01:26:34.774Z,48.30
2019-01-09T01:39:41.931Z,48.50
2019-01-09T01:52:49.070Z,48.50
2019-01-09T02:06:13.187Z,48.60
2019-01-09T02:19:35.940Z,48.70
2019-01-09T02:32:58.888Z,48.90
2019-01-09T02:46:21.534Z,49.10
2019-01-09T02:59:44.497Z,49.30
2019-01-09T03:13:07.200Z,49.40
2019-01-09T03:26:30.018Z,49.40
2019-01-09T03:39:52.844Z,49.50
2019-01-09T03:53:15.777Z,49.60
2019-01-09T04:06:41.652Z,49.70
2019-01-09T04:20:01.308Z,49.50
2019-01-09T04:33:24.053Z,50.00
2019-01-09T04:46:47.049Z,49.40
2019-01-09T05:00:09.859Z,49.30
2019-01-09T05:13:32.654Z,49.30
2019-01-09T05:26:55.477Z,49.80
2019-01-09T05:40:18.275Z,50.00
2019-01-09T05:53:41.128Z,50.00
2019-01-09T06:07:03.808Z,50.00
2019-01-09T06:20:26.589Z,50.00
2019-01-09T06:33:49.413Z,50.20
2019-01-09T06:47:12.344Z,49.80
2019-01-09T07:00:35.194Z,49.70
2019-01-09T07:26:59.501Z,49.40
2019-01-09T07:40:06.643Z,49.40
2019-01-09T07:53:13.813Z,49.50
2019-01-09T08:06:21.105Z,49.00
2019-01-09T08:19:29.215Z,48.50
2019-01-09T08:32:53.026Z,48.60
2019-01-09T08:46:15.789Z,48.60
2019-01-09T09:12:40.286Z,48.50
2019-01-09T09:38:52.961Z,48.20
2019-01-09T09:52:00.164Z,48.30
2019-01-09T10:05:07.384Z,48.40
2019-01-09T10:31:18.983Z,48.30
2019-01-09T10:44:26.153Z,48.50
2019-01-09T10:57:33.337Z,48.60
2019-01-09T11:10:40.605Z,48.70
2019-01-09T11:23:47.912Z,48.80
2019-01-09T11:50:13.918Z,48.60
2019-01-09T12:03:21.158Z,48.80
2019-01-09T12:16:28.314Z,48.80
2019-01-09T12:29:35.451Z,48.50
2019-01-09T12:42:42.598Z,48.70
2019-01-09T12:55:49.786Z,48.20
2019-01-09T13:09:21.839Z,48.80
2019-01-09T13:22:36.287Z,49.10
2019-01-09T13:35:59.213Z,49.30
2019-01-09T13:49:21.941Z,49.40
2019-01-09T14:02:44.806Z,49.40
2019-01-09T14:16:07.624Z,49.30
2019-01-09T14:29:30.438Z,49.20
2019-01-09T14:42:53.153Z,49.40
2019-01-09T14:56:15.985Z,49.50
2019-01-09T15:09:38.973Z,49.60
2019-01-09T15:23:01.729Z,46.90
2019-01-09T15:36:24.608Z,48.50
2019-01-09T15:49:47.550Z,48.90
2019-01-09T16:03:10.213Z,49.20
2019-01-09T16:16:32.903Z,49.50
2019-01-09T16:29:55.697Z,49.80
2019-01-09T16:43:18.495Z,49.80
2019-01-09T16:56:41.355Z,50.00
2019-01-09T17:10:04.221Z,50.00
2019-01-09T17:23:26.974Z,50.10
2019-01-09T17:36:49.954Z,50.20
2019-01-09T17:50:12.601Z,50.20
2019-01-09T18:03:35.377Z,50.20
2019-01-09T18:16:58.258Z,50.10
2019-01-09T18:30:21.272Z,50.50
2019-01-09T18:43:43.860Z,50.50
2019-01-09T18:57:06.773Z,49.60
2019-01-09T19:10:29.552Z,49.40
2019-01-09T19:23:52.436Z,48.20
2019-01-09T19:37:15.162Z,46.30
2019-01-09T19:50:42.290Z,45.00
2019-01-09T20:17:02.402Z,43.00
2019-01-09T20:30:09.725Z,42.30
2019-01-09T20:43:17.035Z,41.70
2019-01-09T20:56:24.188Z,41.30
2019-01-09T21:09:31.366Z,40.50
2019-01-09T21:22:38.631Z,40.10
2019-01-09T21:36:02.206Z,40.70
2019-01-09T21:49:26.023Z,41.70
2019-01-09T22:02:48.057Z,42.40
2019-01-09T22:16:10.741Z,43.10
2019-01-09T22:29:33.589Z,43.60
2019-01-09T22:42:56.211Z,43.90
2019-01-09T22:56:19.075Z,44.20
2019-01-09T23:09:42.046Z,44.50
2019-01-09T23:23:04.844Z,44.70
2019-01-09T23:36:27.556Z,44.90
2019-01-09T23:49:50.338Z,43.70
